sensor_id;sensor_type;location;lat;lon;timestamp;P1;durP1;ratioP1;P2;durP2;ratioP2
41394;SDS011;27136;53.810;8.886;2022-08-19T00:00:20;6.40;;;2.97;;
41394;SDS011;27136;53.810;8.886;2022-08-19T00:02:46;3.05;;;2.47;;
41394;SDS011;27136;53.810;8.886;2022-08-19T00:05:13;3.80;;;2.35;;
41394;SDS011;27136;53.810;8.886;2022-08-19T00:07:41;4.30;;;2.45;;
41394;SDS011;27136;53.810;8.886;2022-08-19T00:10:08;4.10;;;2.60;;
41394;SDS011;27136;53.810;8.886;2022-08-19T00:12:34;3.40;;;2.55;;
41394;SDS011;27136;53.810;8.886;2022-08-19T00:15:02;3.30;;;2.58;;
41394;SDS011;27136;53.810;8.886;2022-08-19T00:17:41;4.43;;;2.22;;
41394;SDS011;27136;53.810;8.886;2022-08-19T00:20:08;8.63;;;3.33;;
41394;SDS011;27136;53.810;8.886;2022-08-19T00:22:36;3.80;;;2.63;;
41394;SDS011;27136;53.810;8.886;2022-08-19T00:25:03;4.13;;;2.58;;
41394;SDS011;27136;53.810;8.886;2022-08-19T00:27:29;3.38;;;2.75;;
41394;SDS011;27136;53.810;8.886;2022-08-19T00:29:55;3.90;;;2.50;;
41394;SDS011;27136;53.810;8.886;2022-08-19T00:32:20;4.63;;;2.88;;
41394;SDS011;27136;53.810;8.886;2022-08-19T00:34:46;4.43;;;2.60;;
41394;SDS011;27136;53.810;8.886;2022-08-19T00:37:12;4.57;;;2.90;;
41394;SDS011;27136;53.810;8.886;2022-08-19T00:39:38;5.20;;;2.53;;
41394;SDS011;27136;53.810;8.886;2022-08-19T00:42:04;3.45;;;2.38;;
41394;SDS011;27136;53.810;8.886;2022-08-19T00:44:31;4.70;;;2.60;;
41394;SDS011;27136;53.810;8.886;2022-08-19T00:46:57;5.40;;;2.38;;
41394;SDS011;27136;53.810;8.886;2022-08-19T00:49:35;4.53;;;2.83;;
41394;SDS011;27136;53.810;8.886;2022-08-19T00:52:03;4.22;;;2.70;;
41394;SDS011;27136;53.810;8.886;2022-08-19T00:54:32;6.07;;;2.50;;
41394;SDS011;27136;53.810;8.886;2022-08-19T00:56:58;4.75;;;3.25;;
41394;SDS011;27136;53.810;8.886;2022-08-19T00:59:26;2.95;;;2.63;;
41394;SDS011;27136;53.810;8.886;2022-08-19T01:01:54;3.47;;;2.57;;
41394;SDS011;27136;53.810;8.886;2022-08-19T01:04:19;4.32;;;2.75;;
41394;SDS011;27136;53.810;8.886;2022-08-19T01:06:45;3.13;;;2.58;;
41394;SDS011;27136;53.810;8.886;2022-08-19T01:09:10;6.30;;;3.00;;
41394;SDS011;27136;53.810;8.886;2022-08-19T01:11:38;4.20;;;3.28;;
41394;SDS011;27136;53.810;8.886;2022-08-19T01:14:08;8.07;;;3.40;;
41394;SDS011;27136;53.810;8.886;2022-08-19T01:16:35;5.93;;;2.90;;
41394;SDS011;27136;53.810;8.886;2022-08-19T01:19:02;3.97;;;2.83;;
41394;SDS011;27136;53.810;8.886;2022-08-19T01:21:38;3.85;;;2.63;;
41394;SDS011;27136;53.810;8.886;2022-08-19T01:24:19;4.35;;;2.72;;
41394;SDS011;27136;53.810;8.886;2022-08-19T01:26:46;4.47;;;2.90;;
41394;SDS011;27136;53.810;8.886;2022-08-19T01:29:22;4.47;;;3.10;;
41394;SDS011;27136;53.810;8.886;2022-08-19T01:31:47;5.10;;;3.17;;
41394;SDS011;27136;53.810;8.886;2022-08-19T01:34:14;3.60;;;2.92;;
41394;SDS011;27136;53.810;8.886;2022-08-19T01:36:41;6.03;;;2.92;;
41394;SDS011;27136;53.810;8.886;2022-08-19T01:39:11;6.47;;;2.95;;
41394;SDS011;27136;53.810;8.886;2022-08-19T01:41:38;4.35;;;3.20;;
41394;SDS011;27136;53.810;8.886;2022-08-19T01:44:04;5.72;;;3.25;;
41394;SDS011;27136;53.810;8.886;2022-08-19T01:46:31;7.13;;;3.15;;
41394;SDS011;27136;53.810;8.886;2022-08-19T01:48:57;4.68;;;2.85;;
41394;SDS011;27136;53.810;8.886;2022-08-19T01:51:23;3.42;;;2.95;;
41394;SDS011;27136;53.810;8.886;2022-08-19T01:53:50;4.90;;;3.45;;
41394;SDS011;27136;53.810;8.886;2022-08-19T01:56:16;5.20;;;3.28;;
41394;SDS011;27136;53.810;8.886;2022-08-19T01:58:44;3.65;;;2.80;;
41394;SDS011;27136;53.810;8.886;2022-08-19T02:01:16;4.88;;;3.03;;
41394;SDS011;27136;53.810;8.886;2022-08-19T02:03:42;6.03;;;3.05;;
41394;SDS011;27136;53.810;8.886;2022-08-19T02:06:08;5.00;;;3.63;;
41394;SDS011;27136;53.810;8.886;2022-08-19T02:08:36;3.78;;;2.55;;
41394;SDS011;27136;53.810;8.886;2022-08-19T02:11:03;4.65;;;3.00;;
41394;SDS011;27136;53.810;8.886;2022-08-19T02:13:30;5.03;;;2.78;;
41394;SDS011;27136;53.810;8.886;2022-08-19T02:15:56;6.60;;;3.70;;
41394;SDS011;27136;53.810;8.886;2022-08-19T02:18:22;3.17;;;2.38;;
41394;SDS011;27136;53.810;8.886;2022-08-19T02:20:48;3.72;;;3.00;;
41394;SDS011;27136;53.810;8.886;2022-08-19T02:23:14;3.40;;;2.80;;
41394;SDS011;27136;53.810;8.886;2022-08-19T02:25:41;3.78;;;2.63;;
41394;SDS011;27136;53.810;8.886;2022-08-19T02:28:11;7.10;;;3.10;;
41394;SDS011;27136;53.810;8.886;2022-08-19T02:30:37;3.75;;;2.60;;
41394;SDS011;27136;53.810;8.886;2022-08-19T02:33:04;6.32;;;3.45;;
41394;SDS011;27136;53.810;8.886;2022-08-19T02:35:29;2.88;;;2.38;;
41394;SDS011;27136;53.810;8.886;2022-08-19T02:37:55;6.13;;;3.33;;
41394;SDS011;27136;53.810;8.886;2022-08-19T02:40:39;3.55;;;2.50;;
41394;SDS011;27136;53.810;8.886;2022-08-19T02:43:06;4.15;;;3.00;;
41394;SDS011;27136;53.810;8.886;2022-08-19T02:45:34;5.65;;;2.83;;
41394;SDS011;27136;53.810;8.886;2022-08-19T02:48:01;4.88;;;3.08;;
41394;SDS011;27136;53.810;8.886;2022-08-19T02:50:27;4.85;;;2.67;;
41394;SDS011;27136;53.810;8.886;2022-08-19T02:52:53;4.90;;;3.05;;
41394;SDS011;27136;53.810;8.886;2022-08-19T02:55:18;4.40;;;2.65;;
41394;SDS011;27136;53.810;8.886;2022-08-19T02:57:45;5.00;;;2.92;;
41394;SDS011;27136;53.810;8.886;2022-08-19T03:00:11;3.80;;;3.00;;
41394;SDS011;27136;53.810;8.886;2022-08-19T03:02:38;5.50;;;3.28;;
41394;SDS011;27136;53.810;8.886;2022-08-19T03:05:04;4.55;;;3.38;;
41394;SDS011;27136;53.810;8.886;2022-08-19T03:07:32;3.58;;;3.03;;
41394;SDS011;27136;53.810;8.886;2022-08-19T03:09:58;4.15;;;2.97;;
41394;SDS011;27136;53.810;8.886;2022-08-19T03:12:23;6.63;;;3.40;;
41394;SDS011;27136;53.810;8.886;2022-08-19T03:14:49;5.97;;;3.17;;
41394;SDS011;27136;53.810;8.886;2022-08-19T03:17:15;6.38;;;3.30;;
41394;SDS011;27136;53.810;8.886;2022-08-19T03:19:41;5.45;;;3.20;;
41394;SDS011;27136;53.810;8.886;2022-08-19T03:22:08;6.13;;;3.42;;
41394;SDS011;27136;53.810;8.886;2022-08-19T03:24:33;6.65;;;3.65;;
41394;SDS011;27136;53.810;8.886;2022-08-19T03:26:59;5.50;;;3.58;;
41394;SDS011;27136;53.810;8.886;2022-08-19T03:29:28;5.20;;;4.03;;
41394;SDS011;27136;53.810;8.886;2022-08-19T03:31:56;7.38;;;4.18;;
41394;SDS011;27136;53.810;8.886;2022-08-19T03:34:25;4.63;;;3.47;;
41394;SDS011;27136;53.810;8.886;2022-08-19T03:36:53;5.22;;;3.70;;
41394;SDS011;27136;53.810;8.886;2022-08-19T03:39:20;3.80;;;3.28;;
41394;SDS011;27136;53.810;8.886;2022-08-19T03:41:47;4.28;;;3.67;;
41394;SDS011;27136;53.810;8.886;2022-08-19T03:44:17;7.15;;;4.07;;
41394;SDS011;27136;53.810;8.886;2022-08-19T03:46:51;5.65;;;3.90;;
41394;SDS011;27136;53.810;8.886;2022-08-19T03:49:20;4.78;;;3.90;;
41394;SDS011;27136;53.810;8.886;2022-08-19T03:51:48;4.72;;;3.60;;
41394;SDS011;27136;53.810;8.886;2022-08-19T03:54:16;5.65;;;4.05;;
41394;SDS011;27136;53.810;8.886;2022-08-19T03:56:44;4.63;;;3.60;;
41394;SDS011;27136;53.810;8.886;2022-08-19T03:59:12;6.88;;;3.95;;
41394;SDS011;27136;53.810;8.886;2022-08-19T04:01:40;7.25;;;4.68;;
41394;SDS011;27136;53.810;8.886;2022-08-19T04:04:06;5.07;;;3.53;;
41394;SDS011;27136;53.810;8.886;2022-08-19T04:06:33;4.25;;;3.22;;
41394;SDS011;27136;53.810;8.886;2022-08-19T04:09:02;4.60;;;3.50;;
41394;SDS011;27136;53.810;8.886;2022-08-19T04:11:31;5.65;;;3.63;;
41394;SDS011;27136;53.810;8.886;2022-08-19T04:13:59;5.15;;;3.53;;
41394;SDS011;27136;53.810;8.886;2022-08-19T04:16:26;5.60;;;3.70;;
41394;SDS011;27136;53.810;8.886;2022-08-19T04:18:54;4.70;;;3.40;;
41394;SDS011;27136;53.810;8.886;2022-08-19T04:21:25;4.82;;;2.97;;
41394;SDS011;27136;53.810;8.886;2022-08-19T04:23:52;4.80;;;3.67;;
41394;SDS011;27136;53.810;8.886;2022-08-19T04:26:22;6.07;;;4.10;;
41394;SDS011;27136;53.810;8.886;2022-08-19T04:28:50;6.18;;;3.60;;
41394;SDS011;27136;53.810;8.886;2022-08-19T04:31:21;5.63;;;3.78;;
41394;SDS011;27136;53.810;8.886;2022-08-19T04:33:51;3.97;;;3.35;;
41394;SDS011;27136;53.810;8.886;2022-08-19T04:36:23;6.60;;;3.83;;
41394;SDS011;27136;53.810;8.886;2022-08-19T04:38:53;6.38;;;4.20;;
41394;SDS011;27136;53.810;8.886;2022-08-19T04:41:20;4.10;;;3.70;;
41394;SDS011;27136;53.810;8.886;2022-08-19T04:44:04;4.60;;;3.70;;
41394;SDS011;27136;53.810;8.886;2022-08-19T04:46:30;4.20;;;3.67;;
41394;SDS011;27136;53.810;8.886;2022-08-19T04:48:57;3.80;;;3.20;;
41394;SDS011;27136;53.810;8.886;2022-08-19T04:51:26;4.65;;;3.83;;
41394;SDS011;27136;53.810;8.886;2022-08-19T04:53:52;6.13;;;3.67;;
41394;SDS011;27136;53.810;8.886;2022-08-19T04:56:18;4.32;;;3.10;;
41394;SDS011;27136;53.810;8.886;2022-08-19T04:58:46;5.68;;;3.75;;
41394;SDS011;27136;53.810;8.886;2022-08-19T05:01:33;5.93;;;3.53;;
41394;SDS011;27136;53.810;8.886;2022-08-19T05:04:01;6.05;;;3.50;;
41394;SDS011;27136;53.810;8.886;2022-08-19T05:11:25;4.00;;;2.92;;
41394;SDS011;27136;53.810;8.886;2022-08-19T05:13:52;5.75;;;3.35;;
41394;SDS011;27136;53.810;8.886;2022-08-19T05:16:19;4.93;;;3.03;;
41394;SDS011;27136;53.810;8.886;2022-08-19T05:18:47;4.07;;;3.03;;
41394;SDS011;27136;53.810;8.886;2022-08-19T05:21:32;3.08;;;2.65;;
41394;SDS011;27136;53.810;8.886;2022-08-19T05:24:17;6.30;;;2.78;;
41394;SDS011;27136;53.810;8.886;2022-08-19T05:26:45;5.57;;;3.70;;
41394;SDS011;27136;53.810;8.886;2022-08-19T05:29:13;4.00;;;3.45;;
41394;SDS011;27136;53.810;8.886;2022-08-19T05:31:42;6.90;;;4.38;;
41394;SDS011;27136;53.810;8.886;2022-08-19T05:34:08;5.28;;;3.00;;
41394;SDS011;27136;53.810;8.886;2022-08-19T05:36:35;5.18;;;3.33;;
41394;SDS011;27136;53.810;8.886;2022-08-19T05:39:04;5.03;;;3.55;;
41394;SDS011;27136;53.810;8.886;2022-08-19T05:41:31;4.00;;;3.22;;
41394;SDS011;27136;53.810;8.886;2022-08-19T05:43:56;4.68;;;3.50;;
41394;SDS011;27136;53.810;8.886;2022-08-19T05:46:23;4.03;;;3.30;;
41394;SDS011;27136;53.810;8.886;2022-08-19T05:48:49;4.35;;;3.70;;
41394;SDS011;27136;53.810;8.886;2022-08-19T05:51:15;5.13;;;3.33;;
41394;SDS011;27136;53.810;8.886;2022-08-19T05:53:41;4.70;;;3.53;;
41394;SDS011;27136;53.810;8.886;2022-08-19T05:56:10;4.03;;;3.47;;
41394;SDS011;27136;53.810;8.886;2022-08-19T05:58:37;4.03;;;3.60;;
41394;SDS011;27136;53.810;8.886;2022-08-19T06:01:04;4.55;;;3.97;;
41394;SDS011;27136;53.810;8.886;2022-08-19T06:03:35;4.47;;;3.88;;
41394;SDS011;27136;53.810;8.886;2022-08-19T06:06:02;4.60;;;3.58;;
41394;SDS011;27136;53.810;8.886;2022-08-19T06:08:28;3.50;;;2.90;;
41394;SDS011;27136;53.810;8.886;2022-08-19T06:10:54;5.90;;;4.22;;
41394;SDS011;27136;53.810;8.886;2022-08-19T06:13:21;4.07;;;3.45;;
41394;SDS011;27136;53.810;8.886;2022-08-19T06:15:48;5.30;;;2.97;;
41394;SDS011;27136;53.810;8.886;2022-08-19T06:18:14;4.05;;;3.65;;
41394;SDS011;27136;53.810;8.886;2022-08-19T06:20:40;5.30;;;4.05;;
41394;SDS011;27136;53.810;8.886;2022-08-19T06:23:06;5.60;;;4.38;;
41394;SDS011;27136;53.810;8.886;2022-08-19T06:25:33;5.63;;;3.92;;
41394;SDS011;27136;53.810;8.886;2022-08-19T06:27:58;5.13;;;4.28;;
41394;SDS011;27136;53.810;8.886;2022-08-19T06:30:24;5.25;;;4.07;;
41394;SDS011;27136;53.810;8.886;2022-08-19T06:32:50;4.88;;;3.90;;
41394;SDS011;27136;53.810;8.886;2022-08-19T06:35:15;7.30;;;3.60;;
41394;SDS011;27136;53.810;8.886;2022-08-19T06:37:41;4.03;;;3.50;;
41394;SDS011;27136;53.810;8.886;2022-08-19T06:40:07;4.35;;;3.63;;
41394;SDS011;27136;53.810;8.886;2022-08-19T06:42:35;5.40;;;3.30;;
41394;SDS011;27136;53.810;8.886;2022-08-19T06:45:03;8.02;;;4.20;;
41394;SDS011;27136;53.810;8.886;2022-08-19T06:47:29;5.20;;;3.83;;
41394;SDS011;27136;53.810;8.886;2022-08-19T06:49:57;6.47;;;4.03;;
41394;SDS011;27136;53.810;8.886;2022-08-19T06:52:30;4.30;;;3.80;;
41394;SDS011;27136;53.810;8.886;2022-08-19T06:54:57;5.03;;;3.90;;
41394;SDS011;27136;53.810;8.886;2022-08-19T06:57:24;5.93;;;3.90;;
41394;SDS011;27136;53.810;8.886;2022-08-19T06:59:50;5.00;;;3.58;;
41394;SDS011;27136;53.810;8.886;2022-08-19T07:02:16;5.82;;;3.78;;
41394;SDS011;27136;53.810;8.886;2022-08-19T07:04:42;7.40;;;4.10;;
41394;SDS011;27136;53.810;8.886;2022-08-19T07:07:08;6.38;;;4.60;;
41394;SDS011;27136;53.810;8.886;2022-08-19T07:09:37;4.28;;;3.88;;
41394;SDS011;27136;53.810;8.886;2022-08-19T07:12:05;5.70;;;4.38;;
41394;SDS011;27136;53.810;8.886;2022-08-19T07:14:33;6.13;;;4.60;;
41394;SDS011;27136;53.810;8.886;2022-08-19T07:17:02;4.32;;;3.92;;
41394;SDS011;27136;53.810;8.886;2022-08-19T07:19:29;5.13;;;3.83;;
41394;SDS011;27136;53.810;8.886;2022-08-19T07:21:56;5.43;;;4.07;;
41394;SDS011;27136;53.810;8.886;2022-08-19T07:24:23;3.80;;;3.40;;
41394;SDS011;27136;53.810;8.886;2022-08-19T07:26:50;6.20;;;3.97;;
41394;SDS011;27136;53.810;8.886;2022-08-19T07:29:16;4.63;;;4.07;;
41394;SDS011;27136;53.810;8.886;2022-08-19T07:31:42;7.30;;;4.30;;
41394;SDS011;27136;53.810;8.886;2022-08-19T07:34:09;4.80;;;4.03;;
41394;SDS011;27136;53.810;8.886;2022-08-19T07:36:39;4.50;;;4.05;;
41394;SDS011;27136;53.810;8.886;2022-08-19T07:39:09;3.45;;;2.85;;
41394;SDS011;27136;53.810;8.886;2022-08-19T07:41:38;5.50;;;3.42;;
41394;SDS011;27136;53.810;8.886;2022-08-19T07:44:04;4.97;;;3.28;;
41394;SDS011;27136;53.810;8.886;2022-08-19T07:46:32;4.63;;;3.13;;
41394;SDS011;27136;53.810;8.886;2022-08-19T07:49:00;4.97;;;3.13;;
41394;SDS011;27136;53.810;8.886;2022-08-19T07:51:27;5.30;;;3.13;;
41394;SDS011;27136;53.810;8.886;2022-08-19T07:53:53;6.45;;;4.10;;
41394;SDS011;27136;53.810;8.886;2022-08-19T07:56:20;4.35;;;3.53;;
41394;SDS011;27136;53.810;8.886;2022-08-19T07:58:48;4.95;;;3.35;;
41394;SDS011;27136;53.810;8.886;2022-08-19T08:01:16;4.40;;;3.28;;
41394;SDS011;27136;53.810;8.886;2022-08-19T08:03:45;4.03;;;3.33;;
41394;SDS011;27136;53.810;8.886;2022-08-19T08:06:29;7.22;;;3.03;;
41394;SDS011;27136;53.810;8.886;2022-08-19T08:09:13;3.95;;;2.30;;
41394;SDS011;27136;53.810;8.886;2022-08-19T08:11:54;3.72;;;2.30;;
41394;SDS011;27136;53.810;8.886;2022-08-19T08:14:25;3.03;;;2.30;;
41394;SDS011;27136;53.810;8.886;2022-08-19T08:16:54;3.00;;;2.15;;
41394;SDS011;27136;53.810;8.886;2022-08-19T08:19:20;4.65;;;2.97;;
41394;SDS011;27136;53.810;8.886;2022-08-19T08:21:48;3.05;;;2.15;;
41394;SDS011;27136;53.810;8.886;2022-08-19T08:24:14;2.90;;;2.10;;
41394;SDS011;27136;53.810;8.886;2022-08-19T08:26:40;3.40;;;2.47;;
41394;SDS011;27136;53.810;8.886;2022-08-19T08:29:07;4.10;;;2.70;;
41394;SDS011;27136;53.810;8.886;2022-08-19T08:31:35;4.43;;;2.58;;
41394;SDS011;27136;53.810;8.886;2022-08-19T08:34:01;3.10;;;2.20;;
41394;SDS011;27136;53.810;8.886;2022-08-19T08:36:26;3.78;;;2.22;;
41394;SDS011;27136;53.810;8.886;2022-08-19T08:38:52;3.20;;;2.00;;
41394;SDS011;27136;53.810;8.886;2022-08-19T08:44:31;6.00;;;2.95;;
41394;SDS011;27136;53.810;8.886;2022-08-19T08:47:02;5.00;;;3.05;;
41394;SDS011;27136;53.810;8.886;2022-08-19T08:49:45;3.70;;;2.60;;
41394;SDS011;27136;53.810;8.886;2022-08-19T08:52:22;3.58;;;2.80;;
41394;SDS011;27136;53.810;8.886;2022-08-19T08:54:52;2.42;;;2.10;;
41394;SDS011;27136;53.810;8.886;2022-08-19T08:57:24;3.55;;;2.00;;
41394;SDS011;27136;53.810;8.886;2022-08-19T08:59:53;4.38;;;2.50;;
41394;SDS011;27136;53.810;8.886;2022-08-19T09:02:21;3.75;;;2.20;;
41394;SDS011;27136;53.810;8.886;2022-08-19T09:04:47;3.95;;;2.30;;
41394;SDS011;27136;53.810;8.886;2022-08-19T09:12:26;4.57;;;2.10;;
41394;SDS011;27136;53.810;8.886;2022-08-19T09:15:04;3.33;;;2.25;;
41394;SDS011;27136;53.810;8.886;2022-08-19T09:17:33;4.47;;;2.13;;
41394;SDS011;27136;53.810;8.886;2022-08-19T09:20:16;3.50;;;2.17;;
41394;SDS011;27136;53.810;8.886;2022-08-19T09:22:44;3.10;;;1.98;;
41394;SDS011;27136;53.810;8.886;2022-08-19T09:25:15;2.47;;;2.00;;
41394;SDS011;27136;53.810;8.886;2022-08-19T09:27:42;2.40;;;2.08;;
41394;SDS011;27136;53.810;8.886;2022-08-19T09:30:10;4.65;;;2.33;;
41394;SDS011;27136;53.810;8.886;2022-08-19T09:32:49;3.00;;;1.98;;
41394;SDS011;27136;53.810;8.886;2022-08-19T09:35:17;3.15;;;2.40;;
41394;SDS011;27136;53.810;8.886;2022-08-19T09:37:43;3.17;;;2.22;;
41394;SDS011;27136;53.810;8.886;2022-08-19T09:40:09;3.15;;;2.17;;
41394;SDS011;27136;53.810;8.886;2022-08-19T09:42:36;3.97;;;2.53;;
41394;SDS011;27136;53.810;8.886;2022-08-19T09:45:01;4.28;;;2.55;;
41394;SDS011;27136;53.810;8.886;2022-08-19T09:47:28;3.75;;;2.38;;
41394;SDS011;27136;53.810;8.886;2022-08-19T09:49:53;3.33;;;2.53;;
41394;SDS011;27136;53.810;8.886;2022-08-19T09:52:19;4.65;;;2.78;;
41394;SDS011;27136;53.810;8.886;2022-08-19T09:54:45;4.50;;;2.17;;
41394;SDS011;27136;53.810;8.886;2022-08-19T09:57:11;4.13;;;2.60;;
41394;SDS011;27136;53.810;8.886;2022-08-19T09:59:36;6.28;;;3.25;;
41394;SDS011;27136;53.810;8.886;2022-08-19T10:02:03;4.53;;;2.38;;
41394;SDS011;27136;53.810;8.886;2022-08-19T10:04:29;3.40;;;2.28;;
41394;SDS011;27136;53.810;8.886;2022-08-19T10:07:12;3.10;;;2.67;;
41394;SDS011;27136;53.810;8.886;2022-08-19T10:09:38;3.58;;;2.70;;
41394;SDS011;27136;53.810;8.886;2022-08-19T10:12:05;3.40;;;2.97;;
41394;SDS011;27136;53.810;8.886;2022-08-19T10:14:32;4.80;;;3.00;;
41394;SDS011;27136;53.810;8.886;2022-08-19T10:16:59;3.30;;;2.40;;
41394;SDS011;27136;53.810;8.886;2022-08-19T10:21:54;5.28;;;3.33;;
41394;SDS011;27136;53.810;8.886;2022-08-19T10:24:20;3.38;;;2.60;;
41394;SDS011;27136;53.810;8.886;2022-08-19T10:29:14;5.35;;;3.05;;
41394;SDS011;27136;53.810;8.886;2022-08-19T10:31:41;3.72;;;2.67;;
41394;SDS011;27136;53.810;8.886;2022-08-19T10:34:06;3.63;;;3.17;;
41394;SDS011;27136;53.810;8.886;2022-08-19T10:36:33;4.63;;;3.22;;
41394;SDS011;27136;53.810;8.886;2022-08-19T10:39:02;4.28;;;3.15;;
41394;SDS011;27136;53.810;8.886;2022-08-19T10:41:31;5.90;;;3.40;;
41394;SDS011;27136;53.810;8.886;2022-08-19T10:44:00;5.03;;;3.17;;
41394;SDS011;27136;53.810;8.886;2022-08-19T10:46:28;4.88;;;3.15;;
41394;SDS011;27136;53.810;8.886;2022-08-19T10:48:58;5.22;;;3.90;;
41394;SDS011;27136;53.810;8.886;2022-08-19T10:51:25;4.85;;;3.95;;
41394;SDS011;27136;53.810;8.886;2022-08-19T10:54:10;4.07;;;3.40;;
41394;SDS011;27136;53.810;8.886;2022-08-19T10:56:36;4.97;;;4.05;;
41394;SDS011;27136;53.810;8.886;2022-08-19T10:59:18;5.90;;;3.53;;
41394;SDS011;27136;53.810;8.886;2022-08-19T11:01:49;5.15;;;3.80;;
41394;SDS011;27136;53.810;8.886;2022-08-19T11:04:16;6.32;;;4.30;;
41394;SDS011;27136;53.810;8.886;2022-08-19T11:06:43;4.90;;;4.05;;
41394;SDS011;27136;53.810;8.886;2022-08-19T11:09:12;4.20;;;3.80;;
41394;SDS011;27136;53.810;8.886;2022-08-19T11:14:06;4.90;;;4.10;;
41394;SDS011;27136;53.810;8.886;2022-08-19T11:16:34;5.38;;;4.88;;
41394;SDS011;27136;53.810;8.886;2022-08-19T11:19:00;4.28;;;3.88;;
41394;SDS011;27136;53.810;8.886;2022-08-19T11:23:53;6.20;;;4.50;;
41394;SDS011;27136;53.810;8.886;2022-08-19T11:26:21;6.78;;;4.35;;
41394;SDS011;27136;53.810;8.886;2022-08-19T11:28:47;4.85;;;4.43;;
41394;SDS011;27136;53.810;8.886;2022-08-19T11:31:17;5.63;;;4.22;;
41394;SDS011;27136;53.810;8.886;2022-08-19T11:33:45;5.13;;;3.97;;
41394;SDS011;27136;53.810;8.886;2022-08-19T11:36:11;5.03;;;4.53;;
41394;SDS011;27136;53.810;8.886;2022-08-19T11:38:37;4.82;;;4.20;;
41394;SDS011;27136;53.810;8.886;2022-08-19T11:44:38;4.90;;;4.38;;
41394;SDS011;27136;53.810;8.886;2022-08-19T11:50:52;4.47;;;4.00;;
41394;SDS011;27136;53.810;8.886;2022-08-19T11:53:24;4.95;;;4.35;;
41394;SDS011;27136;53.810;8.886;2022-08-19T11:55:52;4.25;;;3.85;;
41394;SDS011;27136;53.810;8.886;2022-08-19T11:58:24;4.95;;;4.30;;
41394;SDS011;27136;53.810;8.886;2022-08-19T12:00:56;4.80;;;3.67;;
41394;SDS011;27136;53.810;8.886;2022-08-19T12:03:21;4.82;;;3.95;;
41394;SDS011;27136;53.810;8.886;2022-08-19T12:05:47;5.95;;;3.88;;
41394;SDS011;27136;53.810;8.886;2022-08-19T12:08:15;6.47;;;4.75;;
41394;SDS011;27136;53.810;8.886;2022-08-19T12:10:41;6.03;;;4.75;;
41394;SDS011;27136;53.810;8.886;2022-08-19T12:13:08;4.45;;;3.65;;
41394;SDS011;27136;53.810;8.886;2022-08-19T12:15:38;5.10;;;3.70;;
41394;SDS011;27136;53.810;8.886;2022-08-19T12:18:06;4.35;;;3.65;;
41394;SDS011;27136;53.810;8.886;2022-08-19T12:20:36;5.05;;;3.85;;
41394;SDS011;27136;53.810;8.886;2022-08-19T12:23:04;5.13;;;3.75;;
41394;SDS011;27136;53.810;8.886;2022-08-19T12:25:30;5.72;;;4.00;;
41394;SDS011;27136;53.810;8.886;2022-08-19T12:27:56;4.38;;;3.90;;
41394;SDS011;27136;53.810;8.886;2022-08-19T12:30:29;4.75;;;4.15;;
41394;SDS011;27136;53.810;8.886;2022-08-19T12:32:58;5.38;;;4.70;;
41394;SDS011;27136;53.810;8.886;2022-08-19T12:35:24;5.32;;;3.72;;
41394;SDS011;27136;53.810;8.886;2022-08-19T12:37:49;6.35;;;3.33;;
41394;SDS011;27136;53.810;8.886;2022-08-19T12:40:16;4.43;;;3.60;;
41394;SDS011;27136;53.810;8.886;2022-08-19T12:42:43;3.58;;;3.05;;
41394;SDS011;27136;53.810;8.886;2022-08-19T12:45:13;3.15;;;2.60;;
41394;SDS011;27136;53.810;8.886;2022-08-19T12:47:39;4.50;;;3.13;;
41394;SDS011;27136;53.810;8.886;2022-08-19T12:50:06;5.72;;;3.38;;
41394;SDS011;27136;53.810;8.886;2022-08-19T12:52:34;4.53;;;2.95;;
41394;SDS011;27136;53.810;8.886;2022-08-19T12:55:06;3.78;;;2.80;;
41394;SDS011;27136;53.810;8.886;2022-08-19T12:57:32;3.65;;;2.95;;
41394;SDS011;27136;53.810;8.886;2022-08-19T13:00:11;4.50;;;2.88;;
41394;SDS011;27136;53.810;8.886;2022-08-19T13:02:51;4.95;;;3.17;;
41394;SDS011;27136;53.810;8.886;2022-08-19T13:05:19;4.63;;;3.28;;
41394;SDS011;27136;53.810;8.886;2022-08-19T13:08:07;4.30;;;2.80;;
41394;SDS011;27136;53.810;8.886;2022-08-19T13:10:33;4.63;;;3.10;;
41394;SDS011;27136;53.810;8.886;2022-08-19T13:13:02;3.92;;;3.22;;
41394;SDS011;27136;53.810;8.886;2022-08-19T13:15:32;4.57;;;3.40;;
41394;SDS011;27136;53.810;8.886;2022-08-19T13:17:59;3.03;;;2.65;;
41394;SDS011;27136;53.810;8.886;2022-08-19T13:20:25;3.10;;;2.80;;
41394;SDS011;27136;53.810;8.886;2022-08-19T13:22:51;4.25;;;2.90;;
41394;SDS011;27136;53.810;8.886;2022-08-19T13:25:17;4.30;;;3.00;;
41394;SDS011;27136;53.810;8.886;2022-08-19T13:27:45;5.25;;;3.15;;
41394;SDS011;27136;53.810;8.886;2022-08-19T13:30:15;3.30;;;2.88;;
41394;SDS011;27136;53.810;8.886;2022-08-19T13:33:08;3.88;;;3.22;;
41394;SDS011;27136;53.810;8.886;2022-08-19T13:35:51;4.85;;;3.30;;
41394;SDS011;27136;53.810;8.886;2022-08-19T13:38:23;3.65;;;3.35;;
41394;SDS011;27136;53.810;8.886;2022-08-19T13:40:49;4.13;;;3.30;;
41394;SDS011;27136;53.810;8.886;2022-08-19T13:43:17;4.25;;;3.13;;
41394;SDS011;27136;53.810;8.886;2022-08-19T13:45:46;2.95;;;2.50;;
41394;SDS011;27136;53.810;8.886;2022-08-19T13:48:12;3.60;;;2.53;;
41394;SDS011;27136;53.810;8.886;2022-08-19T13:50:39;3.88;;;2.88;;
41394;SDS011;27136;53.810;8.886;2022-08-19T13:53:13;4.60;;;3.38;;
41394;SDS011;27136;53.810;8.886;2022-08-19T13:55:43;4.45;;;2.90;;
41394;SDS011;27136;53.810;8.886;2022-08-19T13:58:09;4.63;;;3.17;;
41394;SDS011;27136;53.810;8.886;2022-08-19T14:00:38;3.40;;;2.73;;
41394;SDS011;27136;53.810;8.886;2022-08-19T14:03:06;3.22;;;2.80;;
41394;SDS011;27136;53.810;8.886;2022-08-19T14:05:32;3.00;;;2.60;;
41394;SDS011;27136;53.810;8.886;2022-08-19T14:07:58;4.20;;;2.70;;
41394;SDS011;27136;53.810;8.886;2022-08-19T14:10:25;2.30;;;1.80;;
41394;SDS011;27136;53.810;8.886;2022-08-19T14:12:52;4.27;;;1.93;;
41394;SDS011;27136;53.810;8.886;2022-08-19T14:15:28;2.17;;;1.55;;
41394;SDS011;27136;53.810;8.886;2022-08-19T14:17:54;2.47;;;1.45;;
41394;SDS011;27136;53.810;8.886;2022-08-19T14:20:21;3.83;;;1.55;;
41394;SDS011;27136;53.810;8.886;2022-08-19T14:22:47;1.65;;;1.33;;
41394;SDS011;27136;53.810;8.886;2022-08-19T14:25:25;1.70;;;1.10;;
41394;SDS011;27136;53.810;8.886;2022-08-19T14:27:53;2.03;;;1.02;;
41394;SDS011;27136;53.810;8.886;2022-08-19T14:30:23;1.83;;;1.13;;
41394;SDS011;27136;53.810;8.886;2022-08-19T14:32:56;1.98;;;1.20;;
41394;SDS011;27136;53.810;8.886;2022-08-19T14:35:24;3.03;;;1.55;;
41394;SDS011;27136;53.810;8.886;2022-08-19T14:37:55;1.35;;;1.00;;
41394;SDS011;27136;53.810;8.886;2022-08-19T14:40:23;2.05;;;1.20;;
41394;SDS011;27136;53.810;8.886;2022-08-19T14:42:54;1.50;;;0.85;;
41394;SDS011;27136;53.810;8.886;2022-08-19T14:45:24;1.65;;;1.10;;
41394;SDS011;27136;53.810;8.886;2022-08-19T14:47:52;2.67;;;1.42;;
41394;SDS011;27136;53.810;8.886;2022-08-19T14:50:18;4.18;;;1.30;;
41394;SDS011;27136;53.810;8.886;2022-08-19T14:52:44;3.70;;;1.45;;
41394;SDS011;27136;53.810;8.886;2022-08-19T14:55:13;2.53;;;1.20;;
41394;SDS011;27136;53.810;8.886;2022-08-19T14:57:41;1.13;;;0.80;;
41394;SDS011;27136;53.810;8.886;2022-08-19T15:00:07;2.42;;;1.30;;
41394;SDS011;27136;53.810;8.886;2022-08-19T15:02:37;1.30;;;0.90;;
41394;SDS011;27136;53.810;8.886;2022-08-19T15:05:03;3.15;;;1.38;;
41394;SDS011;27136;53.810;8.886;2022-08-19T15:07:29;1.45;;;0.90;;
41394;SDS011;27136;53.810;8.886;2022-08-19T15:09:55;3.05;;;1.10;;
41394;SDS011;27136;53.810;8.886;2022-08-19T15:12:22;1.90;;;1.00;;
41394;SDS011;27136;53.810;8.886;2022-08-19T15:14:48;1.50;;;1.00;;
41394;SDS011;27136;53.810;8.886;2022-08-19T15:17:15;2.03;;;0.93;;
41394;SDS011;27136;53.810;8.886;2022-08-19T15:19:42;1.85;;;1.23;;
41394;SDS011;27136;53.810;8.886;2022-08-19T15:22:07;1.63;;;1.20;;
41394;SDS011;27136;53.810;8.886;2022-08-19T15:24:33;1.65;;;1.10;;